sensor_id;sensor_type;location;lat;lon;timestamp;temperature;humidity
44851;DHT22;30583;48.714;9.386;2022-08-14T00:01:07;22.00;48.60
44851;DHT22;30583;48.714;9.386;2022-08-14T00:03:33;22.00;48.60
44851;DHT22;30583;48.714;9.386;2022-08-14T00:06:00;21.60;49.40
44851;DHT22;30583;48.714;9.386;2022-08-14T00:08:27;21.50;49.50
44851;DHT22;30583;48.714;9.386;2022-08-14T00:10:53;21.70;49.30
44851;DHT22;30583;48.714;9.386;2022-08-14T00:13:20;21.70;49.10
44851;DHT22;30583;48.714;9.386;2022-08-14T00:15:49;21.60;49.50
44851;DHT22;30583;48.714;9.386;2022-08-14T00:18:18;21.30;50.10
44851;DHT22;30583;48.714;9.386;2022-08-14T00:20:45;21.70;49.40
44851;DHT22;30583;48.714;9.386;2022-08-14T00:23:12;21.70;49.20
44851;DHT22;30583;48.714;9.386;2022-08-14T00:25:38;21.70;49.20
44851;DHT22;30583;48.714;9.386;2022-08-14T00:28:07;21.50;49.70
44851;DHT22;30583;48.714;9.386;2022-08-14T00:30:33;21.70;49.30
44851;DHT22;30583;48.714;9.386;2022-08-14T00:32:59;21.20;50.40
44851;DHT22;30583;48.714;9.386;2022-08-14T00:35:24;21.10;50.50
44851;DHT22;30583;48.714;9.386;2022-08-14T00:37:50;20.90;51.00
44851;DHT22;30583;48.714;9.386;2022-08-14T00:40:18;20.80;51.10
44851;DHT22;30583;48.714;9.386;2022-08-14T00:42:44;21.00;51.00
44851;DHT22;30583;48.714;9.386;2022-08-14T00:45:13;21.00;51.00
44851;DHT22;30583;48.714;9.386;2022-08-14T00:47:40;21.30;50.10
44851;DHT22;30583;48.714;9.386;2022-08-14T00:50:07;21.40;50.20
44851;DHT22;30583;48.714;9.386;2022-08-14T00:52:33;21.30;50.20
44851;DHT22;30583;48.714;9.386;2022-08-14T00:54:59;21.10;51.30
44851;DHT22;30583;48.714;9.386;2022-08-14T00:57:30;21.20;50.70
44851;DHT22;30583;48.714;9.386;2022-08-14T00:59:57;21.10;51.10
44851;DHT22;30583;48.714;9.386;2022-08-14T01:02:24;21.20;51.20
44851;DHT22;30583;48.714;9.386;2022-08-14T01:04:51;21.10;51.60
44851;DHT22;30583;48.714;9.386;2022-08-14T01:07:18;21.10;52.60
44851;DHT22;30583;48.714;9.386;2022-08-14T01:09:55;20.80;53.30
44851;DHT22;30583;48.714;9.386;2022-08-14T01:12:22;20.90;53.00
44851;DHT22;30583;48.714;9.386;2022-08-14T01:14:48;20.50;54.10
44851;DHT22;30583;48.714;9.386;2022-08-14T01:17:20;20.70;53.90
44851;DHT22;30583;48.714;9.386;2022-08-14T01:19:45;20.60;54.20
44851;DHT22;30583;48.714;9.386;2022-08-14T01:22:30;20.70;54.00
44851;DHT22;30583;48.714;9.386;2022-08-14T01:24:55;20.80;54.00
44851;DHT22;30583;48.714;9.386;2022-08-14T01:27:22;20.90;53.40
44851;DHT22;30583;48.714;9.386;2022-08-14T01:29:53;20.80;53.70
44851;DHT22;30583;48.714;9.386;2022-08-14T01:32:20;20.50;55.00
44851;DHT22;30583;48.714;9.386;2022-08-14T01:34:51;20.50;54.80
44851;DHT22;30583;48.714;9.386;2022-08-14T01:37:18;20.40;54.90
44851;DHT22;30583;48.714;9.386;2022-08-14T01:39:49;20.30;54.60
44851;DHT22;30583;48.714;9.386;2022-08-14T01:42:16;20.40;54.00
44851;DHT22;30583;48.714;9.386;2022-08-14T01:44:42;20.20;54.40
44851;DHT22;30583;48.714;9.386;2022-08-14T01:47:09;20.10;54.80
44851;DHT22;30583;48.714;9.386;2022-08-14T01:49:39;19.90;55.50
44851;DHT22;30583;48.714;9.386;2022-08-14T01:52:04;20.00;55.30
44851;DHT22;30583;48.714;9.386;2022-08-14T01:54:30;20.10;54.90
44851;DHT22;30583;48.714;9.386;2022-08-14T01:56:56;20.30;54.80
44851;DHT22;30583;48.714;9.386;2022-08-14T01:59:32;20.50;54.30
44851;DHT22;30583;48.714;9.386;2022-08-14T02:02:00;20.40;54.60
44851;DHT22;30583;48.714;9.386;2022-08-14T02:04:33;20.40;54.70
44851;DHT22;30583;48.714;9.386;2022-08-14T02:06:59;20.40;54.40
44851;DHT22;30583;48.714;9.386;2022-08-14T02:09:27;20.00;55.10
44851;DHT22;30583;48.714;9.386;2022-08-14T02:11:54;19.90;55.20
44851;DHT22;30583;48.714;9.386;2022-08-14T02:14:20;20.00;55.00
44851;DHT22;30583;48.714;9.386;2022-08-14T02:16:50;19.90;55.20
44851;DHT22;30583;48.714;9.386;2022-08-14T02:19:21;19.90;55.30
44851;DHT22;30583;48.714;9.386;2022-08-14T02:21:49;19.80;55.40
44851;DHT22;30583;48.714;9.386;2022-08-14T02:24:16;19.80;55.20
44851;DHT22;30583;48.714;9.386;2022-08-14T02:26:44;19.80;55.10
44851;DHT22;30583;48.714;9.386;2022-08-14T02:29:16;19.80;55.00
44851;DHT22;30583;48.714;9.386;2022-08-14T02:31:45;19.80;54.80
44851;DHT22;30583;48.714;9.386;2022-08-14T02:34:15;20.10;54.70
44851;DHT22;30583;48.714;9.386;2022-08-14T02:36:44;20.10;55.20
44851;DHT22;30583;48.714;9.386;2022-08-14T02:39:11;20.10;55.40
44851;DHT22;30583;48.714;9.386;2022-08-14T02:41:37;19.80;56.30
44851;DHT22;30583;48.714;9.386;2022-08-14T02:44:05;19.50;57.40
44851;DHT22;30583;48.714;9.386;2022-08-14T02:46:31;19.70;57.30
44851;DHT22;30583;48.714;9.386;2022-08-14T02:48:57;19.80;56.50
44851;DHT22;30583;48.714;9.386;2022-08-14T02:51:24;19.60;56.80
44851;DHT22;30583;48.714;9.386;2022-08-14T02:53:50;19.30;57.20
44851;DHT22;30583;48.714;9.386;2022-08-14T02:56:17;19.40;57.20
44851;DHT22;30583;48.714;9.386;2022-08-14T02:58:46;19.60;56.20
44851;DHT22;30583;48.714;9.386;2022-08-14T03:01:14;19.50;56.10
44851;DHT22;30583;48.714;9.386;2022-08-14T03:03:40;19.50;55.90
44851;DHT22;30583;48.714;9.386;2022-08-14T03:06:07;19.50;56.00
44851;DHT22;30583;48.714;9.386;2022-08-14T03:08:34;19.40;56.10
44851;DHT22;30583;48.714;9.386;2022-08-14T03:11:02;19.20;56.70
44851;DHT22;30583;48.714;9.386;2022-08-14T03:13:44;19.10;56.80
44851;DHT22;30583;48.714;9.386;2022-08-14T03:16:13;18.90;56.90
44851;DHT22;30583;48.714;9.386;2022-08-14T03:18:44;18.90;57.50
44851;DHT22;30583;48.714;9.386;2022-08-14T03:21:17;19.20;57.00
44851;DHT22;30583;48.714;9.386;2022-08-14T03:23:46;19.00;57.50
44851;DHT22;30583;48.714;9.386;2022-08-14T03:26:15;19.00;57.50
44851;DHT22;30583;48.714;9.386;2022-08-14T03:28:43;19.10;57.30
44851;DHT22;30583;48.714;9.386;2022-08-14T03:31:10;19.30;56.60
44851;DHT22;30583;48.714;9.386;2022-08-14T03:33:37;19.20;56.90
44851;DHT22;30583;48.714;9.386;2022-08-14T03:36:11;19.40;57.10
44851;DHT22;30583;48.714;9.386;2022-08-14T03:38:38;19.20;58.00
44851;DHT22;30583;48.714;9.386;2022-08-14T03:41:11;19.10;58.00
44851;DHT22;30583;48.714;9.386;2022-08-14T03:43:43;19.20;57.50
44851;DHT22;30583;48.714;9.386;2022-08-14T03:46:10;19.30;57.40
44851;DHT22;30583;48.714;9.386;2022-08-14T03:48:38;19.30;57.60
44851;DHT22;30583;48.714;9.386;2022-08-14T03:51:04;19.20;58.20
44851;DHT22;30583;48.714;9.386;2022-08-14T03:53:33;18.90;59.10
44851;DHT22;30583;48.714;9.386;2022-08-14T03:56:05;18.60;59.90
44851;DHT22;30583;48.714;9.386;2022-08-14T03:58:32;18.80;59.30
44851;DHT22;30583;48.714;9.386;2022-08-14T04:00:59;18.70;59.60
44851;DHT22;30583;48.714;9.386;2022-08-14T04:03:25;18.50;60.10
44851;DHT22;30583;48.714;9.386;2022-08-14T04:05:52;18.50;60.20
44851;DHT22;30583;48.714;9.386;2022-08-14T04:08:18;18.50;59.90
44851;DHT22;30583;48.714;9.386;2022-08-14T04:10:45;18.30;60.60
44851;DHT22;30583;48.714;9.386;2022-08-14T04:13:12;18.40;60.30
44851;DHT22;30583;48.714;9.386;2022-08-14T04:15:43;18.60;59.50
44851;DHT22;30583;48.714;9.386;2022-08-14T04:18:08;18.40;60.20
44851;DHT22;30583;48.714;9.386;2022-08-14T04:20:34;18.60;59.50
44851;DHT22;30583;48.714;9.386;2022-08-14T04:23:00;18.70;58.80
44851;DHT22;30583;48.714;9.386;2022-08-14T04:25:26;18.60;59.60
44851;DHT22;30583;48.714;9.386;2022-08-14T04:27:52;18.70;59.00
44851;DHT22;30583;48.714;9.386;2022-08-14T04:30:19;18.60;59.30
44851;DHT22;30583;48.714;9.386;2022-08-14T04:32:45;18.40;59.80
44851;DHT22;30583;48.714;9.386;2022-08-14T04:35:10;18.50;59.60
44851;DHT22;30583;48.714;9.386;2022-08-14T04:37:36;18.40;59.90
44851;DHT22;30583;48.714;9.386;2022-08-14T04:40:20;18.30;60.00
44851;DHT22;30583;48.714;9.386;2022-08-14T04:43:04;18.60;59.40
44851;DHT22;30583;48.714;9.386;2022-08-14T04:45:48;18.30;60.10
44851;DHT22;30583;48.714;9.386;2022-08-14T04:48:15;18.40;59.80
44851;DHT22;30583;48.714;9.386;2022-08-14T04:53:16;18.60;59.40
44851;DHT22;30583;48.714;9.386;2022-08-14T04:55:44;18.40;60.10
44851;DHT22;30583;48.714;9.386;2022-08-14T04:58:13;18.30;60.40
44851;DHT22;30583;48.714;9.386;2022-08-14T05:00:40;18.40;60.20
44851;DHT22;30583;48.714;9.386;2022-08-14T05:03:06;18.40;60.10
44851;DHT22;30583;48.714;9.386;2022-08-14T05:05:33;18.20;60.70
44851;DHT22;30583;48.714;9.386;2022-08-14T05:08:07;18.40;60.60
44851;DHT22;30583;48.714;9.386;2022-08-14T05:10:49;18.40;60.60
44851;DHT22;30583;48.714;9.386;2022-08-14T05:13:23;18.50;60.40
44851;DHT22;30583;48.714;9.386;2022-08-14T05:15:51;18.20;61.10
44851;DHT22;30583;48.714;9.386;2022-08-14T05:18:22;18.20;61.20
44851;DHT22;30583;48.714;9.386;2022-08-14T05:20:50;18.20;61.40
44851;DHT22;30583;48.714;9.386;2022-08-14T05:23:18;18.60;60.70
44851;DHT22;30583;48.714;9.386;2022-08-14T05:25:46;18.70;60.20
44851;DHT22;30583;48.714;9.386;2022-08-14T05:28:20;18.60;60.40
44851;DHT22;30583;48.714;9.386;2022-08-14T05:30:52;18.60;60.70
44851;DHT22;30583;48.714;9.386;2022-08-14T05:33:20;18.70;60.60
44851;DHT22;30583;48.714;9.386;2022-08-14T05:35:47;18.70;61.20
44851;DHT22;30583;48.714;9.386;2022-08-14T05:38:15;18.60;60.00
44851;DHT22;30583;48.714;9.386;2022-08-14T05:40:42;18.60;60.40
44851;DHT22;30583;48.714;9.386;2022-08-14T05:43:08;18.70;59.60
44851;DHT22;30583;48.714;9.386;2022-08-14T05:45:34;18.70;59.70
44851;DHT22;30583;48.714;9.386;2022-08-14T05:48:01;18.70;59.50
44851;DHT22;30583;48.714;9.386;2022-08-14T05:50:27;18.60;59.70
44851;DHT22;30583;48.714;9.386;2022-08-14T05:52:53;18.70;59.90
44851;DHT22;30583;48.714;9.386;2022-08-14T05:55:20;18.80;59.40
44851;DHT22;30583;48.714;9.386;2022-08-14T05:57:54;18.90;59.30
44851;DHT22;30583;48.714;9.386;2022-08-14T06:00:24;19.10;59.20
44851;DHT22;30583;48.714;9.386;2022-08-14T06:02:50;19.20;58.70
44851;DHT22;30583;48.714;9.386;2022-08-14T06:05:16;18.90;59.30
44851;DHT22;30583;48.714;9.386;2022-08-14T06:07:42;19.20;58.40
44851;DHT22;30583;48.714;9.386;2022-08-14T06:10:08;19.50;58.00
44851;DHT22;30583;48.714;9.386;2022-08-14T06:12:35;19.40;58.00
44851;DHT22;30583;48.714;9.386;2022-08-14T06:15:01;19.20;58.30
44851;DHT22;30583;48.714;9.386;2022-08-14T06:17:26;19.40;57.90
44851;DHT22;30583;48.714;9.386;2022-08-14T06:19:52;19.40;58.20
44851;DHT22;30583;48.714;9.386;2022-08-14T06:22:18;19.50;57.90
44851;DHT22;30583;48.714;9.386;2022-08-14T06:24:44;19.50;58.10
44851;DHT22;30583;48.714;9.386;2022-08-14T06:27:09;19.60;57.90
44851;DHT22;30583;48.714;9.386;2022-08-14T06:29:36;19.50;58.70
44851;DHT22;30583;48.714;9.386;2022-08-14T06:32:03;19.50;59.00
44851;DHT22;30583;48.714;9.386;2022-08-14T06:34:29;19.40;59.10
44851;DHT22;30583;48.714;9.386;2022-08-14T06:36:55;19.30;59.40
44851;DHT22;30583;48.714;9.386;2022-08-14T06:39:24;19.50;59.10
44851;DHT22;30583;48.714;9.386;2022-08-14T06:41:50;19.80;58.40
44851;DHT22;30583;48.714;9.386;2022-08-14T06:44:15;20.00;57.90
44851;DHT22;30583;48.714;9.386;2022-08-14T06:46:41;19.90;58.40
44851;DHT22;30583;48.714;9.386;2022-08-14T06:49:07;20.10;59.30
44851;DHT22;30583;48.714;9.386;2022-08-14T06:51:32;20.30;58.60
44851;DHT22;30583;48.714;9.386;2022-08-14T06:54:00;20.10;58.60
44851;DHT22;30583;48.714;9.386;2022-08-14T06:56:25;19.90;58.70
44851;DHT22;30583;48.714;9.386;2022-08-14T06:58:51;19.90;58.30
44851;DHT22;30583;48.714;9.386;2022-08-14T07:01:16;20.20;57.90
44851;DHT22;30583;48.714;9.386;2022-08-14T07:04:00;20.40;56.60
44851;DHT22;30583;48.714;9.386;2022-08-14T07:06:44;20.10;56.60
44851;DHT22;30583;48.714;9.386;2022-08-14T07:09:10;20.20;56.50
44851;DHT22;30583;48.714;9.386;2022-08-14T07:11:36;20.10;57.10
44851;DHT22;30583;48.714;9.386;2022-08-14T07:14:03;20.20;57.30
44851;DHT22;30583;48.714;9.386;2022-08-14T07:16:29;20.60;56.30
44851;DHT22;30583;48.714;9.386;2022-08-14T07:18:55;20.80;55.30
44851;DHT22;30583;48.714;9.386;2022-08-14T07:21:21;20.70;55.30
44851;DHT22;30583;48.714;9.386;2022-08-14T07:23:46;20.50;55.80
44851;DHT22;30583;48.714;9.386;2022-08-14T07:26:12;20.70;55.70
44851;DHT22;30583;48.714;9.386;2022-08-14T07:28:38;21.00;54.90
44851;DHT22;30583;48.714;9.386;2022-08-14T07:31:07;21.10;54.60
44851;DHT22;30583;48.714;9.386;2022-08-14T07:33:39;21.20;54.20
44851;DHT22;30583;48.714;9.386;2022-08-14T07:36:07;21.50;54.30
44851;DHT22;30583;48.714;9.386;2022-08-14T07:38:34;21.70;53.60
44851;DHT22;30583;48.714;9.386;2022-08-14T07:41:01;21.70;52.80
44851;DHT22;30583;48.714;9.386;2022-08-14T07:43:27;21.90;52.70
44851;DHT22;30583;48.714;9.386;2022-08-14T07:45:53;21.80;52.60
44851;DHT22;30583;48.714;9.386;2022-08-14T07:48:18;21.70;53.30
44851;DHT22;30583;48.714;9.386;2022-08-14T07:50:45;22.00;52.40
44851;DHT22;30583;48.714;9.386;2022-08-14T07:53:12;22.00;52.50
44851;DHT22;30583;48.714;9.386;2022-08-14T07:55:40;22.10;52.40
44851;DHT22;30583;48.714;9.386;2022-08-14T07:58:06;22.30;51.70
44851;DHT22;30583;48.714;9.386;2022-08-14T08:00:32;22.40;51.30
44851;DHT22;30583;48.714;9.386;2022-08-14T08:02:58;22.60;51.50
44851;DHT22;30583;48.714;9.386;2022-08-14T08:05:24;23.30;55.30
44851;DHT22;30583;48.714;9.386;2022-08-14T08:07:51;24.10;52.40
44851;DHT22;30583;48.714;9.386;2022-08-14T08:10:20;24.00;49.70
44851;DHT22;30583;48.714;9.386;2022-08-14T08:15:56;22.70;50.50
44851;DHT22;30583;48.714;9.386;2022-08-14T08:18:23;23.30;50.10
44851;DHT22;30583;48.714;9.386;2022-08-14T08:20:50;23.70;48.80
44851;DHT22;30583;48.714;9.386;2022-08-14T08:23:18;23.70;48.50
44851;DHT22;30583;48.714;9.386;2022-08-14T08:25:46;24.10;49.30
44851;DHT22;30583;48.714;9.386;2022-08-14T08:28:18;24.50;48.20
44851;DHT22;30583;48.714;9.386;2022-08-14T08:30:53;24.60;47.40
44851;DHT22;30583;48.714;9.386;2022-08-14T08:33:22;24.70;47.50
44851;DHT22;30583;48.714;9.386;2022-08-14T08:35:48;24.90;45.70
44851;DHT22;30583;48.714;9.386;2022-08-14T08:38:21;25.00;45.40
44851;DHT22;30583;48.714;9.386;2022-08-14T08:40:48;25.20;45.00
44851;DHT22;30583;48.714;9.386;2022-08-14T08:43:30;25.20;45.00
44851;DHT22;30583;48.714;9.386;2022-08-14T08:46:01;25.30;42.80
44851;DHT22;30583;48.714;9.386;2022-08-14T08:48:30;25.50;43.20
44851;DHT22;30583;48.714;9.386;2022-08-14T08:50:58;25.70;42.60
44851;DHT22;30583;48.714;9.386;2022-08-14T08:53:30;25.70;42.50
44851;DHT22;30583;48.714;9.386;2022-08-14T08:55:57;26.00;42.20
44851;DHT22;30583;48.714;9.386;2022-08-14T08:58:23;26.00;42.70
44851;DHT22;30583;48.714;9.386;2022-08-14T09:00:54;26.20;42.10
44851;DHT22;30583;48.714;9.386;2022-08-14T09:03:25;26.50;40.20
44851;DHT22;30583;48.714;9.386;2022-08-14T09:06:02;26.70;39.60
44851;DHT22;30583;48.714;9.386;2022-08-14T09:08:34;26.70;39.60
44851;DHT22;30583;48.714;9.386;2022-08-14T09:11:05;26.70;39.20
44851;DHT22;30583;48.714;9.386;2022-08-14T09:13:32;26.90;37.60
44851;DHT22;30583;48.714;9.386;2022-08-14T09:15:58;27.00;37.30
44851;DHT22;30583;48.714;9.386;2022-08-14T09:18:26;27.30;36.80
44851;DHT22;30583;48.714;9.386;2022-08-14T09:20:54;27.30;36.10
44851;DHT22;30583;48.714;9.386;2022-08-14T09:23:19;27.50;36.40
44851;DHT22;30583;48.714;9.386;2022-08-14T09:25:47;27.60;35.30
44851;DHT22;30583;48.714;9.386;2022-08-14T09:28:15;27.50;36.00
44851;DHT22;30583;48.714;9.386;2022-08-14T09:30:44;27.50;36.00
44851;DHT22;30583;48.714;9.386;2022-08-14T09:36:24;27.80;35.60
44851;DHT22;30583;48.714;9.386;2022-08-14T09:47:50;28.40;34.40
44851;DHT22;30583;48.714;9.386;2022-08-14T09:50:21;28.50;33.70
44851;DHT22;30583;48.714;9.386;2022-08-14T09:53:01;28.50;34.00
44851;DHT22;30583;48.714;9.386;2022-08-14T09:55:30;28.70;34.50
44851;DHT22;30583;48.714;9.386;2022-08-14T10:00:50;28.90;33.80
44851;DHT22;30583;48.714;9.386;2022-08-14T10:03:30;28.80;33.20
44851;DHT22;30583;48.714;9.386;2022-08-14T10:06:21;28.80;33.30
44851;DHT22;30583;48.714;9.386;2022-08-14T10:11:32;29.00;33.50
44851;DHT22;30583;48.714;9.386;2022-08-14T10:14:17;29.00;33.30
44851;DHT22;30583;48.714;9.386;2022-08-14T10:16:48;29.30;32.70
44851;DHT22;30583;48.714;9.386;2022-08-14T10:19:16;29.40;32.80
44851;DHT22;30583;48.714;9.386;2022-08-14T10:22:05;29.40;32.90
44851;DHT22;30583;48.714;9.386;2022-08-14T10:24:37;29.40;32.80
44851;DHT22;30583;48.714;9.386;2022-08-14T10:27:16;29.60;32.20
44851;DHT22;30583;48.714;9.386;2022-08-14T10:29:47;29.70;33.10
44851;DHT22;30583;48.714;9.386;2022-08-14T10:32:14;29.40;32.10
44851;DHT22;30583;48.714;9.386;2022-08-14T10:34:40;29.70;32.00
44851;DHT22;30583;48.714;9.386;2022-08-14T10:37:13;29.60;32.40
44851;DHT22;30583;48.714;9.386;2022-08-14T10:39:56;29.70;31.70
44851;DHT22;30583;48.714;9.386;2022-08-14T10:42:22;29.80;31.30
44851;DHT22;30583;48.714;9.386;2022-08-14T10:44:48;29.90;31.70
44851;DHT22;30583;48.714;9.386;2022-08-14T10:47:15;30.20;31.50
44851;DHT22;30583;48.714;9.386;2022-08-14T10:49:58;30.00;31.50
44851;DHT22;30583;48.714;9.386;2022-08-14T10:52:27;29.80;31.60
44851;DHT22;30583;48.714;9.386;2022-08-14T10:55:05;29.50;31.40
44851;DHT22;30583;48.714;9.386;2022-08-14T10:57:33;30.10;31.10
44851;DHT22;30583;48.714;9.386;2022-08-14T11:00:10;30.30;31.00
44851;DHT22;30583;48.714;9.386;2022-08-14T11:02:38;30.20;31.80
44851;DHT22;30583;48.714;9.386;2022-08-14T11:05:17;30.50;30.80
44851;DHT22;30583;48.714;9.386;2022-08-14T11:07:57;30.50;30.80
44851;DHT22;30583;48.714;9.386;2022-08-14T11:13:08;30.30;30.40
44851;DHT22;30583;48.714;9.386;2022-08-14T11:15:34;30.50;30.90
44851;DHT22;30583;48.714;9.386;2022-08-14T11:18:00;30.70;29.90
44851;DHT22;30583;48.714;9.386;2022-08-14T11:20:28;30.80;30.10
44851;DHT22;30583;48.714;9.386;2022-08-14T11:22:57;30.70;30.60
44851;DHT22;30583;48.714;9.386;2022-08-14T11:25:25;30.70;30.90
44851;DHT22;30583;48.714;9.386;2022-08-14T11:27:53;30.80;30.10
44851;DHT22;30583;48.714;9.386;2022-08-14T11:30:22;31.10;30.10
44851;DHT22;30583;48.714;9.386;2022-08-14T11:32:49;31.00;30.10
44851;DHT22;30583;48.714;9.386;2022-08-14T11:35:21;30.70;29.90
44851;DHT22;30583;48.714;9.386;2022-08-14T11:37:53;31.00;29.20
44851;DHT22;30583;48.714;9.386;2022-08-14T11:40:21;31.20;28.60
44851;DHT22;30583;48.714;9.386;2022-08-14T11:42:49;31.30;29.00
44851;DHT22;30583;48.714;9.386;2022-08-14T11:45:21;31.50;28.70
44851;DHT22;30583;48.714;9.386;2022-08-14T11:47:48;31.70;28.40
44851;DHT22;30583;48.714;9.386;2022-08-14T11:50:19;31.70;29.20
44851;DHT22;30583;48.714;9.386;2022-08-14T11:52:46;31.40;27.90
44851;DHT22;30583;48.714;9.386;2022-08-14T11:55:13;31.20;27.90
44851;DHT22;30583;48.714;9.386;2022-08-14T11:57:41;31.60;27.30
44851;DHT22;30583;48.714;9.386;2022-08-14T12:00:12;31.50;26.60
44851;DHT22;30583;48.714;9.386;2022-08-14T12:02:56;31.80;26.90
44851;DHT22;30583;48.714;9.386;2022-08-14T12:05:34;32.00;27.00
44851;DHT22;30583;48.714;9.386;2022-08-14T12:08:02;32.10;27.30
44851;DHT22;30583;48.714;9.386;2022-08-14T12:10:32;31.90;27.40
44851;DHT22;30583;48.714;9.386;2022-08-14T12:12:58;31.70;27.60
44851;DHT22;30583;48.714;9.386;2022-08-14T12:15:34;32.20;27.40
44851;DHT22;30583;48.714;9.386;2022-08-14T12:18:00;32.10;27.30
44851;DHT22;30583;48.714;9.386;2022-08-14T12:20:32;32.70;28.00
44851;DHT22;30583;48.714;9.386;2022-08-14T12:22:59;32.60;27.00
44851;DHT22;30583;48.714;9.386;2022-08-14T12:25:25;32.30;27.00
44851;DHT22;30583;48.714;9.386;2022-08-14T12:27:52;32.40;28.30
44851;DHT22;30583;48.714;9.386;2022-08-14T12:32:54;32.50;26.60
44851;DHT22;30583;48.714;9.386;2022-08-14T12:35:21;32.30;27.20
44851;DHT22;30583;48.714;9.386;2022-08-14T12:37:49;32.70;27.50
44851;DHT22;30583;48.714;9.386;2022-08-14T12:40:16;32.80;26.40
44851;DHT22;30583;48.714;9.386;2022-08-14T12:42:42;32.40;26.30
44851;DHT22;30583;48.714;9.386;2022-08-14T12:45:10;32.70;27.90
44851;DHT22;30583;48.714;9.386;2022-08-14T12:47:41;32.40;26.60
44851;DHT22;30583;48.714;9.386;2022-08-14T12:50:09;32.20;25.90
44851;DHT22;30583;48.714;9.386;2022-08-14T12:52:37;32.40;25.90
44851;DHT22;30583;48.714;9.386;2022-08-14T12:55:17;32.30;23.90
44851;DHT22;30583;48.714;9.386;2022-08-14T12:57:46;32.70;23.70
44851;DHT22;30583;48.714;9.386;2022-08-14T13:00:20;32.70;24.50
44851;DHT22;30583;48.714;9.386;2022-08-14T13:02:49;33.10;24.70
44851;DHT22;30583;48.714;9.386;2022-08-14T13:05:19;33.90;24.90
44851;DHT22;30583;48.714;9.386;2022-08-14T13:07:46;33.70;23.70
44851;DHT22;30583;48.714;9.386;2022-08-14T13:10:12;33.20;24.20
44851;DHT22;30583;48.714;9.386;2022-08-14T13:12:41;33.20;24.70
44851;DHT22;30583;48.714;9.386;2022-08-14T13:15:09;33.90;23.50
44851;DHT22;30583;48.714;9.386;2022-08-14T13:20:06;35.30;23.60
44851;DHT22;30583;48.714;9.386;2022-08-14T13:22:36;34.80;24.30
44851;DHT22;30583;48.714;9.386;2022-08-14T13:25:03;35.20;22.90
44851;DHT22;30583;48.714;9.386;2022-08-14T13:27:31;34.80;24.10
44851;DHT22;30583;48.714;9.386;2022-08-14T13:29:58;34.70;22.90
44851;DHT22;30583;48.714;9.386;2022-08-14T13:32:26;34.80;23.20
44851;DHT22;30583;48.714;9.386;2022-08-14T13:34:54;35.10;23.80
44851;DHT22;30583;48.714;9.386;2022-08-14T13:37:22;35.30;22.90
44851;DHT22;30583;48.714;9.386;2022-08-14T13:39:50;35.30;23.10
44851;DHT22;30583;48.714;9.386;2022-08-14T13:42:20;35.50;23.30
44851;DHT22;30583;48.714;9.386;2022-08-14T13:44:51;35.60;23.50
44851;DHT22;30583;48.714;9.386;2022-08-14T13:47:17;36.40;22.60
44851;DHT22;30583;48.714;9.386;2022-08-14T13:49:48;36.40;22.90
44851;DHT22;30583;48.714;9.386;2022-08-14T13:52:17;36.00;22.90
44851;DHT22;30583;48.714;9.386;2022-08-14T13:54:47;35.90;22.60
44851;DHT22;30583;48.714;9.386;2022-08-14T13:57:15;35.80;23.00
44851;DHT22;30583;48.714;9.386;2022-08-14T13:59:48;36.00;23.30
44851;DHT22;30583;48.714;9.386;2022-08-14T14:02:16;35.60;22.60
44851;DHT22;30583;48.714;9.386;2022-08-14T14:04:44;35.40;22.90
44851;DHT22;30583;48.714;9.386;2022-08-14T14:07:12;34.90;23.20
44851;DHT22;30583;48.714;9.386;2022-08-14T14:09:42;35.30;24.10
44851;DHT22;30583;48.714;9.386;2022-08-14T14:12:09;36.00;22.70
44851;DHT22;30583;48.714;9.386;2022-08-14T14:14:36;35.70;22.90
44851;DHT22;30583;48.714;9.386;2022-08-14T14:17:04;36.10;22.70
44851;DHT22;30583;48.714;9.386;2022-08-14T14:19:31;36.70;21.50
44851;DHT22;30583;48.714;9.386;2022-08-14T14:22:00;36.40;21.80
44851;DHT22;30583;48.714;9.386;2022-08-14T14:24:27;36.50;22.10
44851;DHT22;30583;48.714;9.386;2022-08-14T14:26:53;36.50;21.40
44851;DHT22;30583;48.714;9.386;2022-08-14T14:29:23;36.10;21.10
44851;DHT22;30583;48.714;9.386;2022-08-14T14:31:51;35.30;22.40
44851;DHT22;30583;48.714;9.386;2022-08-14T14:34:17;35.10;22.90
44851;DHT22;30583;48.714;9.386;2022-08-14T14:36:48;35.40;22.30
44851;DHT22;30583;48.714;9.386;2022-08-14T14:39:15;36.00;22.30
44851;DHT22;30583;48.714;9.386;2022-08-14T14:41:42;36.60;21.30
44851;DHT22;30583;48.714;9.386;2022-08-14T14:44:11;36.30;21.10
44851;DHT22;30583;48.714;9.386;2022-08-14T14:46:38;36.00;21.70
44851;DHT22;30583;48.714;9.386;2022-08-14T14:49:06;36.00;21.00
44851;DHT22;30583;48.714;9.386;2022-08-14T14:51:37;36.10;21.20
44851;DHT22;30583;48.714;9.386;2022-08-14T14:54:07;36.20;21.30
44851;DHT22;30583;48.714;9.386;2022-08-14T14:56:33;36.50;21.30
44851;DHT22;30583;48.714;9.386;2022-08-14T14:58:59;36.10;20.90
44851;DHT22;30583;48.714;9.386;2022-08-14T15:01:25;35.80;21.90
44851;DHT22;30583;48.714;9.386;2022-08-14T15:03:51;36.40;21.70
44851;DHT22;30583;48.714;9.386;2022-08-14T15:06:20;35.70;24.20
44851;DHT22;30583;48.714;9.386;2022-08-14T15:08:47;35.60;23.40
44851;DHT22;30583;48.714;9.386;2022-08-14T15:11:13;35.40;23.40
44851;DHT22;30583;48.714;9.386;2022-08-14T15:13:38;34.70;22.50
44851;DHT22;30583;48.714;9.386;2022-08-14T15:16:04;34.30;24.00
44851;DHT22;30583;48.714;9.386;2022-08-14T15:18:32;35.00;23.60
44851;DHT22;30583;48.714;9.386;2022-08-14T15:20:58;35.00;24.30
44851;DHT22;30583;48.714;9.386;2022-08-14T15:23:25;35.30;23.80
44851;DHT22;30583;48.714;9.386;2022-08-14T15:25:51;35.00;24.10
44851;DHT22;30583;48.714;9.386;2022-08-14T15:28:17;34.60;22.90
44851;DHT22;30583;48.714;9.386;2022-08-14T15:30:45;34.80;23.50
44851;DHT22;30583;48.714;9.386;2022-08-14T15:33:11;34.80;23.50
44851;DHT22;30583;48.714;9.386;2022-08-14T15:35:38;35.00;23.50
44851;DHT22;30583;48.714;9.386;2022-08-14T15:38:04;34.80;22.60
44851;DHT22;30583;48.714;9.386;2022-08-14T15:40:38;35.20;22.40
44851;DHT22;30583;48.714;9.386;2022-08-14T15:43:06;34.90;23.50
44851;DHT22;30583;48.714;9.386;2022-08-14T15:45:35;35.30;22.60
44851;DHT22;30583;48.714;9.386;2022-08-14T15:48:01;35.60;22.00
44851;DHT22;30583;48.714;9.386;2022-08-14T15:50:27;35.60;22.20
44851;DHT22;30583;48.714;9.386;2022-08-14T15:52:54;35.80;21.00
44851;DHT22;30583;48.714;9.386;2022-08-14T15:55:20;35.50;21.80
44851;DHT22;30583;48.714;9.386;2022-08-14T15:57:47;35.50;22.20
44851;DHT22;30583;48.714;9.386;2022-08-14T16:00:13;35.10;24.90
44851;DHT22;30583;48.714;9.386;2022-08-14T16:02:58;34.20;25.10
44851;DHT22;30583;48.714;9.386;2022-08-14T16:05:23;34.30;25.20
44851;DHT22;30583;48.714;9.386;2022-08-14T16:07:51;34.30;24.80
44851;DHT22;30583;48.714;9.386;2022-08-14T16:10:17;34.40;25.00